Time;durP1;ratioP1;P1;durP2;ratioP2;P2;SDS_P1;SDS_P2;PMS_P1;PMS_P2;Temp;Humidity;BMP_temperature;BMP_pressure;BME280_temperature;BME280_humidity;BME280_pressure;Samples;Min_cycle;Max_cycle;Signal;HPM_P1;HPM_P2
2023/03/19 00:02:07;;;;;;;6.50;4.40;;;;;;;8.92;100.00;99123.84;5030596;28;20117;-69
2023/03/19 00:04:32;;;;;;;6.97;4.45;;;;;;;9.11;100.00;99185.69;5033200;28;20056;-70
2023/03/19 00:06:58;;;;;;;7.25;4.70;;;;;;;9.06;100.00;99144.47;5032989;28;20029;-70
2023/03/19 00:09:23;;;;;;;8.10;5.03;;;;;;;9.43;100.00;99177.75;5033241;28;20091;-69
2023/03/19 00:11:49;;;;;;;9.98;5.75;;;;;;;9.05;100.00;99124.25;5033051;28;20029;-71
2023/03/19 00:14:16;;;;;;;11.00;6.20;;;;;;;9.24;100.00;99188.63;5032089;28;20416;-70
2023/03/19 00:16:41;;;;;;;9.10;5.13;;;;;;;9.21;100.00;99158.31;5031974;28;20459;-70
2023/03/19 00:19:07;;;;;;;6.22;4.57;;;;;;;9.20;100.00;99169.31;5032924;28;20030;-69
2023/03/19 00:21:33;;;;;;;6.68;5.03;;;;;;;9.02;100.00;99120.09;5032727;28;20407;-69
2023/03/19 00:24:01;;;;;;;7.45;4.72;;;;;;;9.35;100.00;99162.00;5032770;28;20029;-70
2023/03/19 00:26:32;;;;;;;6.90;4.00;;;;;;;8.94;100.00;99128.84;5031293;28;20064;-70
2023/03/19 00:28:58;;;;;;;5.43;4.30;;;;;;;8.99;100.00;99130.38;5032396;28;20052;-70
2023/03/19 00:31:24;;;;;;;6.70;4.70;;;;;;;9.36;100.00;99163.66;5032983;28;20030;-69
2023/03/19 00:33:50;;;;;;;6.65;4.40;;;;;;;9.19;100.00;99124.59;5031040;28;20056;-69
2023/03/19 00:36:17;;;;;;;6.90;4.53;;;;;;;9.20;100.00;99121.16;5033031;28;20038;-70
2023/03/19 00:38:44;;;;;;;7.90;4.57;;;;;;;9.31;100.00;99157.91;5032674;28;20029;-69
2023/03/19 00:41:09;;;;;;;6.57;4.57;;;;;;;9.23;100.00;99171.78;5031183;28;20373;-69
2023/03/19 00:43:35;;;;;;;6.10;4.38;;;;;;;9.35;100.00;99167.06;5039693;28;20175;-70
2023/03/19 00:46:01;;;;;;;5.68;4.28;;;;;;;8.91;100.00;99116.31;5051966;28;20037;-70
2023/03/19 00:48:27;;;;;;;6.00;4.10;;;;;;;9.29;100.00;99162.22;5050277;28;20407;-70
2023/03/19 00:50:52;;;;;;;6.90;4.07;;;;;;;8.97;100.00;99114.38;5051961;28;20039;-70
2023/03/19 00:53:18;;;;;;;7.78;4.47;;;;;;;9.22;100.00;99149.81;5052187;28;20041;-70
2023/03/19 00:55:45;;;;;;;6.82;4.15;;;;;;;9.20;100.00;99170.16;5052047;28;20028;-69
2023/03/19 00:58:10;;;;;;;7.50;4.13;;;;;;;9.11;100.00;99145.13;5052242;28;20059;-68
2023/03/19 01:00:37;;;;;;;5.32;3.85;;;;;;;9.12;100.00;99113.81;5051796;28;20443;-69
2023/03/19 01:03:04;;;;;;;6.68;3.90;;;;;;;9.21;100.00;99176.06;5051724;28;20033;-69
2023/03/19 01:05:30;;;;;;;7.30;4.15;;;;;;;9.08;100.00;99132.56;5050793;28;20032;-70
2023/03/19 01:07:56;;;;;;;8.25;4.15;;;;;;;8.98;100.00;99115.19;5052051;28;20376;-70
2023/03/19 01:10:22;;;;;;;7.93;4.15;;;;;;;9.00;100.00;99134.53;5050469;28;20078;-70
2023/03/19 01:12:48;;;;;;;7.03;3.88;;;;;;;9.11;100.00;99160.31;5051728;28;20036;-70
2023/03/19 01:15:15;;;;;;;8.10;4.00;;;;;;;9.24;100.00;99171.72;5052312;28;20029;-69
2023/03/19 01:17:41;;;;;;;7.18;4.20;;;;;;;9.14;100.00;99126.44;5051182;28;20059;-70
2023/03/19 01:20:12;;;;;;;6.53;4.10;;;;;;;8.77;100.00;99085.56;5050462;28;20555;-69
2023/03/19 01:22:41;;;;;;;5.63;3.90;;;;;;;9.45;100.00;99167.56;5051831;28;20087;-70
2023/03/19 01:25:08;;;;;;;6.45;4.28;;;;;;;9.31;100.00;99131.75;5051561;28;20553;-70
2023/03/19 01:27:34;;;;;;;6.63;4.25;;;;;;;9.02;100.00;99107.44;5051341;28;20041;-69
2023/03/19 01:30:00;;;;;;;6.13;4.18;;;;;;;9.10;100.00;99102.09;5050166;28;20035;-70
2023/03/19 01:32:25;;;;;;;5.78;4.30;;;;;;;9.10;100.00;99104.63;5051050;28;20029;-70
2023/03/19 01:34:52;;;;;;;6.10;4.10;;;;;;;9.02;100.00;99091.38;5051875;28;20055;-70
2023/03/19 01:37:18;;;;;;;6.88;4.18;;;;;;;9.23;100.00;99126.13;5050141;28;20112;-69
2023/03/19 01:39:44;;;;;;;6.60;4.10;;;;;;;8.85;100.00;99089.47;5051158;28;20579;-70
2023/03/19 01:42:10;;;;;;;6.80;3.67;;;;;;;9.19;100.00;99137.25;5049964;28;20115;-69
2023/03/19 01:44:38;;;;;;;6.05;3.63;;;;;;;9.20;100.00;99119.44;5050116;28;20040;-70
2023/03/19 01:47:12;;;;;;;6.95;4.10;;;;;;;9.17;100.00;99122.09;5051048;28;20060;-70
2023/03/19 01:49:39;;;;;;;5.93;3.90;;;;;;;9.20;100.00;99116.09;5050919;28;20301;-69
2023/03/19 01:52:07;;;;;;;5.70;3.85;;;;;;;9.31;100.00;99112.25;5049709;28;20035;-70
2023/03/19 01:54:33;;;;;;;6.30;3.63;;;;;;;9.15;100.00;99090.88;5050958;28;20056;-70
2023/03/19 01:57:04;;;;;;;5.50;3.85;;;;;;;9.37;100.00;99111.19;5049317;28;20135;-70
2023/03/19 01:59:40;;;;;;;7.25;4.20;;;;;;;8.94;100.00;99073.09;5050454;28;20124;-70
2023/03/19 02:02:16;;;;;;;7.53;4.10;;;;;;;8.99;100.00;99089.81;5050935;28;20051;-70
2023/03/19 02:04:43;;;;;;;5.75;3.72;;;;;;;9.21;100.00;99123.63;5050729;28;20054;-70
2023/03/19 02:07:10;;;;;;;6.85;3.92;;;;;;;9.00;100.00;99070.34;5049652;28;20091;-70
2023/03/19 02:09:36;;;;;;;6.15;4.05;;;;;;;9.20;100.00;99116.09;5049746;28;20039;-71
2023/03/19 02:12:01;;;;;;;6.13;3.75;;;;;;;8.99;100.00;99110.09;5051267;28;20025;-71
2023/03/19 02:14:27;;;;;;;4.88;3.58;;;;;;;9.20;100.00;99111.84;5051140;28;20028;-70
2023/03/19 02:16:53;;;;;;;7.25;4.18;;;;;;;8.80;100.00;99080.34;5050847;28;20040;-70
2023/03/19 02:19:34;;;;;;;6.13;3.85;;;;;;;8.80;100.00;99076.13;5050745;28;20032;-70
2023/03/19 02:22:01;;;;;;;4.78;2.83;;;;;;;8.93;100.00;99106.94;5050691;28;20029;-71
2023/03/19 02:24:37;;;;;;;8.18;4.30;;;;;;;9.04;100.00;99138.63;5049739;28;20040;-70
2023/03/19 02:27:06;;;;;;;6.85;4.10;;;;;;;8.88;100.00;99088.53;5050668;28;20135;-71
2023/03/19 02:29:32;;;;;;;8.25;3.92;;;;;;;9.03;100.00;99129.34;5050752;28;20033;-70
2023/03/19 02:31:57;;;;;;;6.63;3.72;;;;;;;8.99;100.00;99122.75;5050404;28;20033;-71
2023/03/19 02:34:23;;;;;;;6.28;3.75;;;;;;;9.05;100.00;99147.06;5051337;28;20497;-70
2023/03/19 02:36:57;;;;;;;7.82;3.92;;;;;;;8.82;100.00;99162.22;5050633;28;20060;-69
2023/03/19 02:39:30;;;;;;;7.15;3.88;;;;;;;8.92;100.00;99164.41;5049181;28;20032;-70
2023/03/19 02:41:58;;;;;;;7.13;3.80;;;;;;;8.51;100.00;99129.50;5049317;28;20033;-70
2023/03/19 02:44:23;;;;;;;5.47;3.88;;;;;;;8.63;100.00;99146.84;5048763;28;20033;-70
2023/03/19 02:46:49;;;;;;;6.45;4.05;;;;;;;8.40;100.00;99113.81;5049932;28;20110;-70
2023/03/19 02:49:14;;;;;;;8.63;3.90;;;;;;;8.86;100.00;99191.66;5048461;28;20033;-70
2023/03/19 02:51:40;;;;;;;8.18;4.10;;;;;;;8.49;100.00;99159.97;5049884;28;20041;-70
2023/03/19 02:54:06;;;;;;;5.88;3.42;;;;;;;8.74;100.00;99213.16;5050261;28;20033;-71
2023/03/19 02:56:32;;;;;;;5.72;3.42;;;;;;;8.69;100.00;99172.75;5050584;28;20031;-70
2023/03/19 02:58:58;;;;;;;8.07;3.80;;;;;;;8.80;100.00;99214.66;5048947;28;20511;-70
2023/03/19 03:01:23;;;;;;;7.82;4.32;;;;;;;8.71;100.00;99231.81;5050082;28;20032;-70
2023/03/19 03:03:49;;;;;;;7.63;3.90;;;;;;;8.73;100.00;99225.00;5050003;28;20025;-69
2023/03/19 03:06:16;;;;;;;7.00;4.30;;;;;;;8.48;100.00;99178.56;5049605;28;20040;-70
2023/03/19 03:08:42;;;;;;;8.23;4.30;;;;;;;8.69;100.00;99220.91;5049998;28;20057;-69
2023/03/19 03:11:08;;;;;;;6.07;4.03;;;;;;;8.42;100.00;99166.09;5050004;28;20091;-70
2023/03/19 03:13:33;;;;;;;7.10;3.97;;;;;;;8.57;100.00;99206.13;5048595;28;20033;-70
2023/03/19 03:15:59;;;;;;;5.88;4.10;;;;;;;8.56;100.00;99194.31;5049794;28;20029;-71
2023/03/19 03:18:25;;;;;;;6.72;4.40;;;;;;;8.41;100.00;99187.22;5049472;28;20036;-70
2023/03/19 03:20:51;;;;;;;8.70;4.25;;;;;;;8.83;100.00;99199.38;5033928;28;20108;-70
2023/03/19 03:23:16;;;;;;;8.23;4.13;;;;;;;8.60;100.00;99167.19;5049956;28;20190;-70
2023/03/19 03:25:42;;;;;;;7.85;3.90;;;;;;;8.74;100.00;99173.44;5049961;28;20103;-70
2023/03/19 03:28:07;;;;;;;6.00;4.20;;;;;;;8.50;100.00;99128.66;5048462;28;20686;-70
2023/03/19 03:30:33;;;;;;;6.05;4.38;;;;;;;8.65;100.00;99170.41;5047698;28;20021;-70
2023/03/19 03:32:58;;;;;;;7.35;3.83;;;;;;;8.49;100.00;99101.72;5050081;28;20071;-70
2023/03/19 03:35:23;;;;;;;5.70;4.10;;;;;;;8.12;100.00;99075.09;5051269;28;20037;-69
2023/03/19 03:37:50;;;;;;;6.03;4.10;;;;;;;8.48;100.00;99111.88;5052667;28;20021;-70
2023/03/19 03:40:16;;;;;;;5.90;3.78;;;;;;;8.49;100.00;99100.88;5053825;28;20483;-70
2023/03/19 03:42:42;;;;;;;8.77;3.97;;;;;;;8.73;100.00;99141.38;5052590;28;20052;-70
2023/03/19 03:45:09;;;;;;;6.15;3.88;;;;;;;8.98;100.00;99155.75;5053965;28;20032;-70
2023/03/19 03:47:36;;;;;;;5.95;3.85;;;;;;;8.76;100.00;99150.59;5052188;28;20422;-69
2023/03/19 03:50:03;;;;;;;6.25;4.03;;;;;;;8.39;100.00;99094.47;5053268;28;20128;-70
2023/03/19 03:52:32;;;;;;;7.25;4.13;;;;;;;8.44;100.00;99106.09;5053698;28;20029;-70
2023/03/19 03:54:58;;;;;;;6.82;4.13;;;;;;;8.52;100.00;99095.69;5053777;28;20063;-70
2023/03/19 03:57:25;;;;;;;6.93;4.35;;;;;;;8.59;100.00;99130.91;5053450;28;20083;-70
2023/03/19 03:59:50;;;;;;;5.65;3.95;;;;;;;8.94;100.00;99175.31;5053237;28;20045;-70
2023/03/19 04:02:16;;;;;;;6.47;4.20;;;;;;;8.83;100.00;99181.63;5053052;28;20040;-70
2023/03/19 04:04:42;;;;;;;6.60;4.13;;;;;;;8.95;100.00;99181.22;5052066;28;20025;-70
2023/03/19 04:07:07;;;;;;;6.00;4.30;;;;;;;9.02;100.00;99164.91;5051497;28;20571;-70
2023/03/19 04:09:33;;;;;;;6.38;4.45;;;;;;;8.96;100.00;99165.13;5051941;28;20086;-70
2023/03/19 04:11:59;;;;;;;7.22;4.70;;;;;;;8.74;100.00;99150.66;5052163;28;20068;-69
2023/03/19 04:14:25;;;;;;;7.03;4.35;;;;;;;8.95;100.00;99193.88;5053077;28;20033;-70
2023/03/19 04:16:50;;;;;;;6.00;4.32;;;;;;;8.56;100.00;99163.09;5051217;28;20044;-69
2023/03/19 04:19:16;;;;;;;7.00;4.30;;;;;;;8.84;100.00;99193.41;5051161;28;20029;-69
2023/03/19 04:21:41;;;;;;;6.65;4.15;;;;;;;8.81;100.00;99196.06;5044627;28;20044;-70
2023/03/19 04:24:09;;;;;;;6.45;4.32;;;;;;;8.69;100.00;99154.22;5033575;28;20057;-70
2023/03/19 04:26:35;;;;;;;7.20;4.50;;;;;;;8.64;100.00;99199.97;5032789;28;20056;-70
2023/03/19 04:29:01;;;;;;;7.57;4.53;;;;;;;8.57;100.00;99198.53;5033058;28;20033;-70
2023/03/19 04:31:26;;;;;;;9.82;5.53;;;;;;;8.73;100.00;99189.53;5034656;28;20458;-70
2023/03/19 04:33:52;;;;;;;12.20;6.82;;;;;;;8.30;100.00;99193.53;5036850;28;20099;-70
2023/03/19 04:36:18;;;;;;;9.50;6.07;;;;;;;8.32;100.00;99163.91;5032790;28;20032;-70
2023/03/19 04:38:43;;;;;;;8.43;5.70;;;;;;;8.30;100.00;99163.94;5032895;28;20091;-69
2023/03/19 04:41:09;;;;;;;6.88;5.22;;;;;;;8.35;100.00;99167.16;5036938;28;20055;-70
2023/03/19 04:43:35;;;;;;;7.80;4.88;;;;;;;9.07;100.00;99109.81;5051489;28;20033;-70
2023/03/19 04:46:01;;;;;;;8.32;5.32;;;;;;;8.84;100.00;99214.50;5050013;28;20541;-68
2023/03/19 04:48:26;;;;;;;9.18;5.72;;;;;;;8.42;100.00;99186.34;5049387;28;20108;-69
2023/03/19 04:50:52;;;;;;;9.40;5.68;;;;;;;8.24;100.00;99176.75;5041521;28;20116;-69
2023/03/19 04:53:19;;;;;;;8.40;5.72;;;;;;;8.40;100.00;99203.28;5045507;28;20029;-69
2023/03/19 04:55:46;;;;;;;14.15;8.25;;;;;;;8.32;100.00;99222.97;5052170;28;20035;-69
2023/03/19 04:58:11;;;;;;;9.93;5.90;;;;;;;8.30;100.00;99244.16;5050315;28;20080;-69
2023/03/19 05:00:37;;;;;;;9.43;6.32;;;;;;;8.46;100.00;99228.41;5051405;28;20447;-70
2023/03/19 05:03:02;;;;;;;13.55;8.20;;;;;;;8.05;100.00;99144.50;5033033;28;20037;-69
2023/03/19 05:05:28;;;;;;;13.00;7.82;;;;;;;8.37;100.00;99223.66;5031924;28;20099;-69
2023/03/19 05:07:53;;;;;;;10.68;6.90;;;;;;;8.13;100.00;99199.06;5031991;28;20083;-69
2023/03/19 05:10:19;;;;;;;8.30;5.18;;;;;;;8.37;100.00;99238.84;5030321;28;20033;-69
2023/03/19 05:12:45;;;;;;;10.75;6.22;;;;;;;8.10;100.00;99199.16;5040142;28;20036;-70
2023/03/19 05:15:11;;;;;;;7.82;5.20;;;;;;;8.21;100.00;99217.38;5042213;28;20124;-69
2023/03/19 05:17:36;;;;;;;9.55;5.38;;;;;;;7.98;100.00;99188.59;5051369;28;20036;-69
2023/03/19 05:20:03;;;;;;;12.07;6.72;;;;;;;8.43;100.00;99233.59;5051740;28;20025;-69
2023/03/19 05:22:29;;;;;;;9.40;5.47;;;;;;;8.50;100.00;99229.97;5052149;28;20094;-69
2023/03/19 05:24:55;;;;;;;9.07;5.90;;;;;;;8.50;100.00;99240.13;5051609;28;20475;-69
2023/03/19 05:27:20;;;;;;;12.05;8.52;;;;;;;8.48;100.00;99236.81;5050139;28;20458;-69
2023/03/19 05:29:47;;;;;;;11.07;7.82;;;;;;;8.33;100.00;99176.53;5050345;28;20090;-69
2023/03/19 05:32:12;;;;;;;13.63;9.07;;;;;;;8.38;100.00;99202.50;5051428;28;20535;-69
2023/03/19 05:34:38;;;;;;;10.43;5.90;;;;;;;8.71;100.00;99218.34;5050231;28;20120;-69
2023/03/19 05:37:03;;;;;;;11.40;7.85;;;;;;;8.54;100.00;99182.59;5050086;28;20427;-69
2023/03/19 05:39:29;;;;;;;9.85;5.85;;;;;;;8.57;100.00;99183.34;5043301;28;20116;-68
2023/03/19 05:41:54;;;;;;;12.27;6.70;;;;;;;8.53;100.00;99135.34;5051065;28;20036;-69
2023/03/19 05:44:20;;;;;;;9.85;6.82;;;;;;;8.46;100.00;99174.41;5051177;28;20136;-69
2023/03/19 05:46:45;;;;;;;9.73;6.25;;;;;;;8.92;100.00;99212.56;5050587;28;20029;-69
2023/03/19 05:49:11;;;;;;;9.70;5.90;;;;;;;8.67;100.00;99183.84;5049465;28;20487;-69
2023/03/19 05:51:37;;;;;;;10.07;5.47;;;;;;;8.90;100.00;99206.72;5051634;28;20025;-70
2023/03/19 05:54:03;;;;;;;9.80;5.97;;;;;;;8.68;100.00;99168.59;5051251;28;20033;-69
2023/03/19 05:56:29;;;;;;;10.07;6.05;;;;;;;9.03;100.00;99212.19;5049872;28;20025;-69
2023/03/19 05:58:54;;;;;;;10.38;5.90;;;;;;;8.99;100.00;99157.41;5049774;28;20460;-68
2023/03/19 06:01:20;;;;;;;11.13;5.75;;;;;;;8.94;100.00;99154.19;5045907;28;20513;-69
2023/03/19 06:03:46;;;;;;;9.90;5.78;;;;;;;9.07;100.00;99158.78;5030974;28;20029;-69
2023/03/19 06:06:11;;;;;;;9.68;5.97;;;;;;;9.50;100.00;99186.81;5029189;28;20507;-69
2023/03/19 06:08:37;;;;;;;9.93;7.20;;;;;;;8.90;100.00;99133.22;5031025;28;20112;-70
2023/03/19 06:11:02;;;;;;;14.85;10.45;;;;;;;9.58;100.00;99194.97;5030282;28;20499;-70
2023/03/19 06:13:28;;;;;;;21.88;15.95;;;;;;;9.63;100.00;99194.78;5030892;28;20064;-69
2023/03/19 06:15:53;;;;;;;13.95;10.85;;;;;;;10.21;100.00;99165.50;5030062;28;20038;-70
2023/03/19 06:18:19;;;;;;;15.68;12.23;;;;;;;10.76;100.00;99184.41;5028976;28;20029;-69
2023/03/19 06:20:45;;;;;;;12.18;8.73;;;;;;;11.26;100.00;99172.94;5030888;28;20082;-70
2023/03/19 06:23:11;;;;;;;12.20;7.93;;;;;;;11.09;100.00;99209.25;5041428;28;20040;-69
2023/03/19 06:25:36;;;;;;;10.85;6.82;;;;;;;11.42;100.00;99229.06;5042272;28;20036;-69
2023/03/19 06:28:02;;;;;;;10.13;7.00;;;;;;;11.94;100.00;99262.34;5044229;28;20061;-70
2023/03/19 06:30:28;;;;;;;9.80;6.32;;;;;;;11.91;100.00;99228.56;5046308;28;20498;-69
2023/03/19 06:32:53;;;;;;;10.35;5.50;;;;;;;11.73;100.00;99248.03;5044105;28;20029;-70
2023/03/19 06:35:19;;;;;;;8.63;6.07;;;;;;;12.48;100.00;99301.53;5041428;28;20033;-70
2023/03/19 06:37:45;;;;;;;11.23;6.35;;;;;;;11.63;100.00;99254.41;5035972;28;20454;-69
2023/03/19 06:40:11;;;;;;;12.13;7.15;;;;;;;12.13;100.00;99237.72;5037184;28;20060;-69
2023/03/19 06:42:36;;;;;;;9.20;6.10;;;;;;;12.67;100.00;99218.16;5044881;28;20407;-70
2023/03/19 06:45:02;;;;;;;10.18;6.40;;;;;;;13.31;100.00;99288.06;5057857;28;20414;-72
2023/03/19 06:47:27;;;;;;;8.20;5.32;;;;;;;12.66;100.00;99298.91;5056876;28;20033;-71
2023/03/19 06:49:53;;;;;;;8.20;5.35;;;;;;;13.10;100.00;99314.66;5055760;28;20410;-71
2023/03/19 06:52:18;;;;;;;9.77;6.40;;;;;;;12.95;100.00;99292.44;5054236;28;20483;-71
2023/03/19 06:54:44;;;;;;;8.65;5.45;;;;;;;12.74;100.00;99276.44;5060068;28;20032;-70
2023/03/19 06:57:09;;;;;;;9.73;6.25;;;;;;;12.99;100.00;99293.94;5056229;28;20128;-69
2023/03/19 06:59:35;;;;;;;7.38;4.95;;;;;;;12.59;100.00;99281.44;5059317;28;20049;-70
2023/03/19 07:02:01;;;;;;;9.68;5.55;;;;;;;12.63;100.00;99280.41;5056792;28;20414;-70
2023/03/19 07:04:26;;;;;;;12.90;7.63;;;;;;;12.92;100.00;99310.41;5059634;28;20043;-72
2023/03/19 07:06:51;;;;;;;8.57;5.20;;;;;;;12.88;100.00;99340.38;5057997;28;20040;-72
2023/03/19 07:09:17;;;;;;;7.45;5.15;;;;;;;13.94;100.00;99304.41;5061533;28;20061;-72
2023/03/19 07:11:42;;;;;;;8.70;4.90;;;;;;;13.62;100.00;99300.13;5055531;28;20032;-72
2023/03/19 07:14:08;;;;;;;6.75;4.78;;;;;;;14.07;100.00;99294.34;5061509;28;20380;-72
2023/03/19 07:16:34;;;;;;;6.55;5.20;;;;;;;13.83;100.00;99356.06;5059488;28;20482;-73
2023/03/19 07:18:59;;;;;;;10.18;6.97;;;;;;;13.92;100.00;99326.66;5055701;28;20123;-71
2023/03/19 07:21:25;;;;;;;7.85;5.47;;;;;;;13.72;100.00;99308.97;5058249;28;20540;-72
2023/03/19 07:23:50;;;;;;;6.93;4.63;;;;;;;13.98;100.00;99336.56;5063743;28;20056;-72
2023/03/19 07:26:17;;;;;;;8.98;5.25;;;;;;;14.98;100.00;99323.41;5061403;28;20033;-73
2023/03/19 07:28:42;;;;;;;8.27;5.57;;;;;;;14.85;100.00;99342.94;5060084;28;20032;-73
2023/03/19 07:31:08;;;;;;;8.43;5.18;;;;;;;14.18;100.00;99280.06;5059706;28;20434;-72
2023/03/19 07:33:33;;;;;;;6.13;4.60;;;;;;;15.22;100.00;99324.59;5061690;28;20166;-70
2023/03/19 07:35:59;;;;;;;7.78;5.65;;;;;;;14.64;100.00;99353.44;5054200;28;20044;-72
2023/03/19 07:38:24;;;;;;;6.93;5.38;;;;;;;14.57;100.00;99341.06;5048791;28;20029;-72
2023/03/19 07:40:50;;;;;;;9.38;5.78;;;;;;;14.54;100.00;99284.94;5050356;28;20508;-71
2023/03/19 07:43:16;;;;;;;8.30;6.00;;;;;;;14.40;100.00;99336.06;5050581;28;20086;-72
2023/03/19 07:45:41;;;;;;;8.43;5.32;;;;;;;14.70;100.00;99355.66;5048952;28;20127;-72
2023/03/19 07:48:07;;;;;;;9.60;5.88;;;;;;;14.65;100.00;99369.63;5050161;28;20415;-71
2023/03/19 07:50:33;;;;;;;10.55;5.72;;;;;;;15.20;100.00;99368.22;5050302;28;21254;-71
2023/03/19 07:52:58;;;;;;;8.07;5.70;;;;;;;14.71;100.00;99344.53;5049969;28;20064;-72
2023/03/19 07:55:24;;;;;;;7.75;5.93;;;;;;;14.86;100.00;99337.72;5045343;28;20029;-72
2023/03/19 07:57:50;;;;;;;8.05;5.93;;;;;;;14.75;100.00;99315.31;5049131;28;20040;-73
2023/03/19 08:00:16;;;;;;;7.63;5.32;;;;;;;15.08;100.00;99276.72;5048725;28;20036;-72
2023/03/19 08:02:41;;;;;;;8.35;5.20;;;;;;;14.62;100.00;99311.75;5047996;28;20045;-72
2023/03/19 08:05:08;;;;;;;9.07;6.43;;;;;;;15.31;100.00;99311.25;5050382;28;20097;-72
2023/03/19 08:07:34;;;;;;;7.32;4.70;;;;;;;15.15;100.00;99280.56;5049639;28;20594;-72
2023/03/19 08:10:01;;;;;;;7.05;4.78;;;;;;;14.92;100.00;99305.84;5049351;28;20166;-70
2023/03/19 08:12:26;;;;;;;5.85;4.15;;;;;;;13.91;100.00;99340.31;5042781;28;20055;-70
2023/03/19 08:14:52;;;;;;;6.60;4.30;;;;;;;14.09;100.00;99293.34;5041540;28;20115;-70
2023/03/19 08:17:17;;;;;;;6.25;4.85;;;;;;;15.24;100.00;99261.31;5047543;28;20025;-70
2023/03/19 08:19:43;;;;;;;8.55;4.72;;;;;;;15.53;100.00;99335.56;5049279;28;20025;-70
2023/03/19 08:22:08;;;;;;;6.35;4.93;;;;;;;14.93;100.00;99307.50;5047546;28;20310;-70
2023/03/19 08:24:34;;;;;;;7.95;5.05;;;;;;;15.93;100.00;99295.56;5052543;28;20104;-70
2023/03/19 08:26:59;;;;;;;7.70;4.80;;;;;;;15.13;100.00;99331.03;5051345;28;20452;-69
2023/03/19 08:29:26;;;;;;;6.45;4.97;;;;;;;16.00;100.00;99319.94;5051641;28;20036;-69
2023/03/19 08:31:55;;;;;;;7.43;4.95;;;;;;;16.07;100.00;99287.03;5052209;28;20075;-70
2023/03/19 08:34:21;;;;;;;9.32;5.68;;;;;;;16.15;100.00;99374.59;5053253;28;20059;-72
2023/03/19 08:36:48;;;;;;;10.50;6.60;;;;;;;15.58;100.00;99333.56;5053259;28;20036;-72
2023/03/19 08:39:14;;;;;;;9.10;5.18;;;;;;;14.32;100.00;99289.63;5048807;28;20484;-71
2023/03/19 08:41:39;;;;;;;6.57;4.60;;;;;;;14.88;100.00;99271.09;5076828;28;20071;-71
2023/03/19 08:44:05;;;;;;;8.38;4.90;;;;;;;14.77;100.00;99323.72;5054082;28;20079;-72
2023/03/19 08:46:30;;;;;;;6.50;4.65;;;;;;;15.08;100.00;99268.22;5063175;28;20028;-72
2023/03/19 08:48:56;;;;;;;6.57;5.20;;;;;;;14.80;100.00;99281.75;5061714;28;20091;-72
2023/03/19 08:51:24;;;;;;;6.45;4.43;;;;;;;15.71;100.00;99267.00;5060953;28;20051;-72
2023/03/19 08:53:50;;;;;;;6.75;5.15;;;;;;;16.33;100.00;99353.78;5061808;28;20037;-71
2023/03/19 08:56:15;;;;;;;6.38;3.97;;;;;;;16.63;100.00;99368.22;5060635;28;20033;-72
2023/03/19 08:58:41;;;;;;;5.50;4.07;;;;;;;16.09;100.00;99424.50;5061873;28;20077;-70
2023/03/19 09:01:09;;;;;;;6.97;4.10;;;;;;;15.85;100.00;99378.97;5065479;28;20021;-70
2023/03/19 09:03:36;;;;;;;4.88;3.88;;;;;;;16.65;100.00;99374.91;5063464;28;20477;-73
2023/03/19 09:06:05;;;;;;;7.10;3.83;;;;;;;16.33;100.00;99374.28;5059758;28;20505;-73
2023/03/19 09:08:32;;;;;;;4.20;3.38;;;;;;;17.11;100.00;99363.34;5062240;28;20036;-69
2023/03/19 09:10:59;;;;;;;6.22;3.85;;;;;;;17.60;100.00;99396.16;5063643;28;20132;-74
2023/03/19 09:13:25;;;;;;;6.88;4.10;;;;;;;16.94;100.00;99462.94;5059507;28;20087;-73
2023/03/19 09:15:51;;;;;;;7.80;4.82;;;;;;;17.24;100.00;99436.16;5058771;28;20479;-70
2023/03/19 09:18:19;;;;;;;6.43;4.20;;;;;;;17.08;100.00;99430.34;5060274;28;20056;-70
2023/03/19 09:20:45;;;;;;;4.95;4.10;;;;;;;17.98;100.00;99444.16;5061547;28;20032;-69
2023/03/19 09:23:11;;;;;;;5.07;3.83;;;;;;;16.04;100.00;99398.31;5060115;28;20116;-69
2023/03/19 09:25:37;;;;;;;5.63;4.18;;;;;;;15.70;100.00;99369.63;5060175;28;20115;-67
2023/03/19 09:28:02;;;;;;;6.20;3.78;;;;;;;16.65;100.00;99454.47;5056959;28;20048;-71
2023/03/19 09:30:28;;;;;;;6.05;3.90;;;;;;;16.05;100.00;99317.91;5064269;28;20545;-71
2023/03/19 09:32:53;;;;;;;4.68;3.38;;;;;;;15.84;100.00;99364.50;5059640;28;20037;-75
2023/03/19 09:35:19;;;;;;;4.57;3.55;;;;;;;15.69;100.00;99368.00;5058538;28;20490;-70
2023/03/19 09:37:45;;;;;;;5.97;3.33;;;;;;;16.97;100.00;99373.72;5058090;28;20094;-69
2023/03/19 09:40:22;;;;;;;4.82;3.70;;;;;;;17.51;100.00;99430.19;5059386;28;20025;-71
2023/03/19 09:43:19;;;;;;;4.63;2.97;;;;;;;16.98;100.00;99402.75;5060444;28;20530;-70
2023/03/19 09:45:46;;;;;;;4.00;3.10;;;;;;;16.78;100.00;99401.44;5064905;28;20082;-70
2023/03/19 09:48:18;;;;;;;5.70;4.40;;;;;;;17.21;100.00;99462.03;5060655;28;20036;-69
2023/03/19 09:50:47;;;;;;;5.22;3.53;;;;;;;17.42;100.00;99446.16;5058779;28;20056;-69
2023/03/19 09:53:52;;;;;;;5.53;3.33;;;;;;;16.47;100.00;99504.31;5058077;28;20127;-69
2023/03/19 09:56:18;;;;;;;4.63;3.10;;;;;;;17.45;100.00;99417.72;5054835;28;20506;-69
2023/03/19 09:58:44;;;;;;;6.28;3.63;;;;;;;17.41;100.00;99498.50;5059902;28;20352;-71
2023/03/19 10:01:34;;;;;;;5.45;3.70;;;;;;;16.13;100.00;99468.75;5062853;28;20118;-70
2023/03/19 10:04:29;;;;;;;5.70;3.80;;;;;;;17.41;100.00;99382.84;5059977;28;20029;-70
2023/03/19 10:07:18;;;;;;;6.05;4.30;;;;;;;18.30;100.00;99447.13;5059212;28;20094;-70
2023/03/19 10:10:04;;;;;;;6.80;3.50;;;;;;;17.40;100.00;99420.56;5030490;28;20029;-69
2023/03/19 10:12:42;;;;;;;8.93;7.32;;;;;;;17.68;100.00;99471.06;5036380;28;20053;-69
2023/03/19 10:15:23;;;;;;;18.55;16.75;;;;;;;18.18;100.00;99496.84;5031310;28;20025;-68
2023/03/19 10:18:06;;;;;;;10.35;9.27;;;;;;;17.10;100.00;99448.22;5029563;28;20038;-68
2023/03/19 10:20:51;;;;;;;11.05;9.73;;;;;;;18.84;100.00;99528.34;5026973;28;20037;-69
2023/03/19 10:23:51;;;;;;;15.02;12.95;;;;;;;18.50;100.00;99546.19;5027746;28;20040;-69
2023/03/19 10:26:27;;;;;;;21.02;16.05;;;;;;;18.78;100.00;99571.72;5027653;28;20031;-69
2023/03/19 10:29:10;;;;;;;18.50;15.43;;;;;;;17.98;100.00;99549.63;5028912;28;20029;-69
2023/03/19 10:31:42;;;;;;;10.70;9.35;;;;;;;18.44;100.00;99608.41;5029520;28;20044;-69
2023/03/19 10:34:32;;;;;;;9.15;7.25;;;;;;;17.69;100.00;99512.09;5029517;28;20041;-69
2023/03/19 10:37:00;;;;;;;9.85;8.50;;;;;;;18.43;100.00;99610.13;5027882;28;20029;-69
2023/03/19 10:39:27;;;;;;;7.93;6.53;;;;;;;17.65;100.00;99599.81;5028617;28;20826;-69
2023/03/19 10:42:00;;;;;;;7.85;6.40;;;;;;;18.32;100.00;99637.47;5029100;28;20029;-67
2023/03/19 10:44:41;;;;;;;6.78;6.03;;;;;;;19.12;100.00;99650.13;5028232;28;20112;-69
2023/03/19 10:47:15;;;;;;;6.55;5.85;;;;;;;19.06;100.00;99674.56;5024288;28;20052;-69
2023/03/19 10:49:41;;;;;;;6.00;4.88;;;;;;;18.96;100.00;99686.41;5027858;28;20116;-68
2023/03/19 10:52:23;;;;;;;13.43;10.02;;;;;;;18.33;100.00;99613.38;5029500;28;20029;-69
2023/03/19 10:54:55;;;;;;;7.05;5.28;;;;;;;19.50;100.00;99689.59;5028625;28;20038;-68
2023/03/19 10:57:22;;;;;;;;;;;;;;;19.19;100.00;99767.34;5029885;28;20061;-69
2023/03/19 10:59:47;;;;;;;4.82;3.90;;;;;;;19.04;100.00;99776.91;5027920;28;19932;-69
2023/03/19 11:02:22;;;;;;;7.22;4.03;;;;;;;18.84;100.00;99767.91;5029455;28;20029;-68
2023/03/19 11:05:06;;;;;;;5.25;3.63;;;;;;;16.86;100.00;99727.06;5030082;28;20033;-68
2023/03/19 11:07:32;;;;;;;9.43;3.50;;;;;;;18.77;100.00;99751.22;5029534;28;20029;-69
2023/03/19 11:09:58;;;;;;;4.88;3.22;;;;;;;17.47;100.00;99781.66;5029120;28;20044;-70
2023/03/19 11:12:31;;;;;;;4.03;3.30;;;;;;;17.99;100.00;99749.34;5045193;28;20049;-69
2023/03/19 11:14:57;;;;;;;7.15;3.47;;;;;;;18.92;100.00;99850.69;5029735;28;20029;-68
2023/03/19 11:17:25;;;;;;;4.88;3.35;;;;;;;19.05;100.00;99855.91;5029913;28;20415;-68
2023/03/19 11:19:57;;;;;;;6.07;3.67;;;;;;;18.94;100.00;99851.44;5029842;28;20051;-69
2023/03/19 11:22:32;;;;;;;4.88;3.47;;;;;;;19.47;100.00;99865.19;5029774;28;20029;-69
2023/03/19 11:25:19;;;;;;;5.05;3.50;;;;;;;18.68;100.00;99820.50;5030026;28;20037;-69
2023/03/19 11:28:01;;;;;;;5.30;3.55;;;;;;;18.17;100.00;99851.16;5028454;28;20503;-68
2023/03/19 11:30:30;;;;;;;;;;;;;;;19.15;100.00;99908.50;5028895;28;20050;-69
2023/03/19 11:33:16;;;;;;;3.95;3.22;;;;;;;18.75;100.00;99951.41;5030040;28;20016;-68